Gulf Bridge — A8JM5 — position and weather

sailwx.info

Track history (hours):
 
Tides and Currents Weather Stations Pressure Air Temp Water Temp Dewpoint Dewpoint Depression Visibility Wind Speed Wind Dir Waves Ship Positions

Gulf Bridge

Last reported at 2015-Jul-28 00:31 UTC. Time now 2015-Jul-28 01:25 UTC.
Position S 27°22' E 153°11'.

Length 213 m; beam 32.2 m; draft 11.5 m.

Type: Cargo ship. MMSI: 636091115.

Date/timePositionNaut miles runAvg speedWind from/ knotsBaromVisibWave heightAir tempDewpointWater temp
2015-Jul-28 00:31S 27°22' E 153°11'0 0.0
2015-Jul-27 23:31S 27°22' E 153°11'0 0.0
2015-Jul-27 22:31S 27°22' E 153°11'0 0.0
2015-Jul-27 21:31S 27°22' E 153°11'0 0.0
2015-Jul-27 20:31S 27°22' E 153°11'2 1.8
2015-Jul-27 19:34S 27°20' E 153°12'1514.6
2015-Jul-27 18:33S 27°08' E 153°21'1818.4
2015-Jul-27 17:33S 26°53' E 153°10'1110.7
2015-Jul-27 16:34S 26°42' E 153°14'6 5.8
2015-Jul-27 15:33S 26°47' E 153°18'1212.2
2015-Jul-27 14:33S 26°53' E 153°30'1211.9
2015-Jul-27 13:33S 26°58' E 153°42'1212.0
2015-Jul-27 12:33S 27°03' E 153°54'  
2015-Jul-23 08:04S 35°53' E 175°23'2911.1
2015-Jul-23 05:30S 36°15' E 175°45'1211.1
2015-Jul-23 04:23S 36°25' E 175°54'6 0.1
2015-Jul-21 03:33S 36°30' E 175°49'1311.5
2015-Jul-21 02:26S 36°27' E 175°34'1011.1
2015-Jul-21 01:33S 36°24' E 175°22'10 9.8
2015-Jul-21 00:33S 36°28' E 175°11'1010.3
2015-Jul-20 23:33S 36°35' E 175°02'1010.1
2015-Jul-20 22:32S 36°42' E 174°53'9 9.1
2015-Jul-20 21:33S 36°50' E 174°48'1 0.6
2015-Jul-20 20:33S 36°51' E 174°47'0 0.0
2015-Jul-20 19:33S 36°51' E 174°47'0 0.0
2015-Jul-20 18:27S 36°51' E 174°47'0 0.0
2015-Jul-20 16:27S 36°51' E 174°47'0 0.0
2015-Jul-20 15:33S 36°51' E 174°47'0 0.0
2015-Jul-20 14:33S 36°51' E 174°47'0 0.0
2015-Jul-20 13:33S 36°51' E 174°47'0 0.0
2015-Jul-20 12:33S 36°51' E 174°47'0 0.0
2015-Jul-20 11:33S 36°51' E 174°47'0 0.0
2015-Jul-20 10:33S 36°51' E 174°47'0 0.0
2015-Jul-20 09:33S 36°51' E 174°47'1 1.4
2015-Jul-20 08:33S 36°50' E 174°49'9 8.7
2015-Jul-20 07:33S 36°42' E 174°52'10 9.7
2015-Jul-20 06:33S 36°35' E 175°01'9 9.3
2015-Jul-20 05:33S 36°29' E 175°09'1 1.4
2015-Jul-20 04:33S 36°29' E 175°08'2 1.6
2015-Jul-20 03:33S 36°30' E 175°06'2 1.7
2015-Jul-20 02:33S 36°31' E 175°04'6 6.0
2015-Jul-20 01:33S 36°27' E 175°10'0 0.4
2015-Jul-20 00:33S 36°27' E 175°09'2 1.8
2015-Jul-19 23:33S 36°29' E 175°08'1 1.4
2015-Jul-19 22:33S 36°30' E 175°07'1 1.3
2015-Jul-19 21:33S 36°31' E 175°06'1 1.1
2015-Jul-19 20:33S 36°31' E 175°05'1 0.8
2015-Jul-19 19:33S 36°32' E 175°04'8 8.2
2015-Jul-19 18:33S 36°24' E 175°02'10 9.7
2015-Jul-19 17:33S 36°14' E 174°58'  
Track history (hours):
 
Tides and Currents Weather Stations Pressure Air Temp Water Temp Dewpoint Dewpoint Depression Visibility Wind Speed Wind Dir Waves Ship Positions

Gulf Bridge

Last reported at 2015-Jul-28 00:31 UTC. Time now 2015-Jul-28 01:25 UTC.
Position S 27°22' E 153°11'.

Length 213 m; beam 32.2 m; draft 11.5 m.

Type: Cargo ship. MMSI: 636091115.

Date/timePositionNaut miles runAvg speedWind from/ knotsBaromVisibWave heightAir tempDewpointWater temp
2015-Jul-28 00:31S 27°22' E 153°11'0 0.0
2015-Jul-27 23:31S 27°22' E 153°11'0 0.0
2015-Jul-27 22:31S 27°22' E 153°11'0 0.0
2015-Jul-27 21:31S 27°22' E 153°11'0 0.0
2015-Jul-27 20:31S 27°22' E 153°11'2 1.8
2015-Jul-27 19:34S 27°20' E 153°12'1514.6
2015-Jul-27 18:33S 27°08' E 153°21'1818.4
2015-Jul-27 17:33S 26°53' E 153°10'1110.7
2015-Jul-27 16:34S 26°42' E 153°14'6 5.8
2015-Jul-27 15:33S 26°47' E 153°18'1212.2
2015-Jul-27 14:33S 26°53' E 153°30'1211.9
2015-Jul-27 13:33S 26°58' E 153°42'1212.0
2015-Jul-27 12:33S 27°03' E 153°54'  
2015-Jul-23 08:04S 35°53' E 175°23'2911.1
2015-Jul-23 05:30S 36°15' E 175°45'1211.1
2015-Jul-23 04:23S 36°25' E 175°54'6 0.1
2015-Jul-21 03:33S 36°30' E 175°49'1311.5
2015-Jul-21 02:26S 36°27' E 175°34'1011.1
2015-Jul-21 01:33S 36°24' E 175°22'10 9.8
2015-Jul-21 00:33S 36°28' E 175°11'1010.3
2015-Jul-20 23:33S 36°35' E 175°02'1010.1
2015-Jul-20 22:32S 36°42' E 174°53'9 9.1
2015-Jul-20 21:33S 36°50' E 174°48'1 0.6
2015-Jul-20 20:33S 36°51' E 174°47'0 0.0
2015-Jul-20 19:33S 36°51' E 174°47'0 0.0
2015-Jul-20 18:27S 36°51' E 174°47'0 0.0
2015-Jul-20 16:27S 36°51' E 174°47'0 0.0
2015-Jul-20 15:33S 36°51' E 174°47'0 0.0
2015-Jul-20 14:33S 36°51' E 174°47'0 0.0
2015-Jul-20 13:33S 36°51' E 174°47'0 0.0
2015-Jul-20 12:33S 36°51' E 174°47'0 0.0
2015-Jul-20 11:33S 36°51' E 174°47'0 0.0
2015-Jul-20 10:33S 36°51' E 174°47'0 0.0
2015-Jul-20 09:33S 36°51' E 174°47'1 1.4
2015-Jul-20 08:33S 36°50' E 174°49'9 8.7
2015-Jul-20 07:33S 36°42' E 174°52'10 9.7
2015-Jul-20 06:33S 36°35' E 175°01'9 9.3
2015-Jul-20 05:33S 36°29' E 175°09'1 1.4
2015-Jul-20 04:33S 36°29' E 175°08'2 1.6
2015-Jul-20 03:33S 36°30' E 175°06'2 1.7
2015-Jul-20 02:33S 36°31' E 175°04'6 6.0
2015-Jul-20 01:33S 36°27' E 175°10'0 0.4
2015-Jul-20 00:33S 36°27' E 175°09'2 1.8
2015-Jul-19 23:33S 36°29' E 175°08'1 1.4
2015-Jul-19 22:33S 36°30' E 175°07'1 1.3
2015-Jul-19 21:33S 36°31' E 175°06'1 1.1
2015-Jul-19 20:33S 36°31' E 175°05'1 0.8
2015-Jul-19 19:33S 36°32' E 175°04'8 8.2
2015-Jul-19 18:33S 36°24' E 175°02'10 9.7
2015-Jul-19 17:33S 36°14' E 174°58'  

Dump ship's entire track history